sensor_id;sensor_type;location;lat;lon;timestamp;temperature;humidity
13344;DHT22;6741;48.964;9.406;2023-04-28T00:01:12;8.50;99.90
13344;DHT22;6741;48.964;9.406;2023-04-28T00:03:39;8.50;99.90
13344;DHT22;6741;48.964;9.406;2023-04-28T00:06:06;8.50;99.90
13344;DHT22;6741;48.964;9.406;2023-04-28T00:08:33;8.60;99.90
13344;DHT22;6741;48.964;9.406;2023-04-28T00:11:00;8.70;99.90
13344;DHT22;6741;48.964;9.406;2023-04-28T00:13:27;8.70;99.90
13344;DHT22;6741;48.964;9.406;2023-04-28T00:15:54;8.70;99.90
13344;DHT22;6741;48.964;9.406;2023-04-28T00:18:22;8.70;99.90
13344;DHT22;6741;48.964;9.406;2023-04-28T00:20:49;8.70;99.90
13344;DHT22;6741;48.964;9.406;2023-04-28T00:23:16;8.70;99.90
13344;DHT22;6741;48.964;9.406;2023-04-28T00:25:43;8.70;99.90
13344;DHT22;6741;48.964;9.406;2023-04-28T00:28:10;8.70;99.90
13344;DHT22;6741;48.964;9.406;2023-04-28T00:30:37;8.70;99.90
13344;DHT22;6741;48.964;9.406;2023-04-28T00:33:04;8.70;99.90
13344;DHT22;6741;48.964;9.406;2023-04-28T00:35:32;8.80;99.90
13344;DHT22;6741;48.964;9.406;2023-04-28T00:37:59;8.80;99.90
13344;DHT22;6741;48.964;9.406;2023-04-28T00:40:32;8.90;99.90
13344;DHT22;6741;48.964;9.406;2023-04-28T00:42:59;8.90;99.90
13344;DHT22;6741;48.964;9.406;2023-04-28T00:45:26;9.00;99.90
13344;DHT22;6741;48.964;9.406;2023-04-28T00:47:54;9.00;99.90
13344;DHT22;6741;48.964;9.406;2023-04-28T00:50:21;9.00;99.90
13344;DHT22;6741;48.964;9.406;2023-04-28T00:52:51;9.00;99.90
13344;DHT22;6741;48.964;9.406;2023-04-28T00:55:18;8.90;99.90
13344;DHT22;6741;48.964;9.406;2023-04-28T00:57:45;8.90;99.90
13344;DHT22;6741;48.964;9.406;2023-04-28T01:00:14;8.90;99.90
13344;DHT22;6741;48.964;9.406;2023-04-28T01:02:42;8.80;99.90
13344;DHT22;6741;48.964;9.406;2023-04-28T01:05:09;8.80;99.90
13344;DHT22;6741;48.964;9.406;2023-04-28T01:07:36;8.80;99.90
13344;DHT22;6741;48.964;9.406;2023-04-28T01:10:06;8.70;99.90
13344;DHT22;6741;48.964;9.406;2023-04-28T01:12:33;8.70;99.90
13344;DHT22;6741;48.964;9.406;2023-04-28T01:15:00;8.70;99.90
13344;DHT22;6741;48.964;9.406;2023-04-28T01:17:27;8.70;99.90
13344;DHT22;6741;48.964;9.406;2023-04-28T01:19:54;8.80;99.90
13344;DHT22;6741;48.964;9.406;2023-04-28T01:22:21;8.80;99.90
13344;DHT22;6741;48.964;9.406;2023-04-28T01:24:49;8.90;99.90
13344;DHT22;6741;48.964;9.406;2023-04-28T01:27:16;8.90;99.90
13344;DHT22;6741;48.964;9.406;2023-04-28T01:29:43;8.90;99.90
13344;DHT22;6741;48.964;9.406;2023-04-28T01:32:10;8.90;99.90
13344;DHT22;6741;48.964;9.406;2023-04-28T01:34:37;8.80;99.90
13344;DHT22;6741;48.964;9.406;2023-04-28T01:37:04;8.80;99.90
13344;DHT22;6741;48.964;9.406;2023-04-28T01:39:31;8.80;99.90
13344;DHT22;6741;48.964;9.406;2023-04-28T01:41:59;8.90;99.90
13344;DHT22;6741;48.964;9.406;2023-04-28T01:44:26;8.90;99.90
13344;DHT22;6741;48.964;9.406;2023-04-28T01:46:53;8.90;99.90
13344;DHT22;6741;48.964;9.406;2023-04-28T01:49:20;8.90;99.90
13344;DHT22;6741;48.964;9.406;2023-04-28T01:51:48;8.90;99.90
13344;DHT22;6741;48.964;9.406;2023-04-28T01:54:15;8.90;99.90
13344;DHT22;6741;48.964;9.406;2023-04-28T01:56:42;8.80;99.90
13344;DHT22;6741;48.964;9.406;2023-04-28T01:59:10;8.80;99.90
13344;DHT22;6741;48.964;9.406;2023-04-28T02:01:37;8.70;99.90
13344;DHT22;6741;48.964;9.406;2023-04-28T02:04:04;8.70;99.90
13344;DHT22;6741;48.964;9.406;2023-04-28T02:06:31;8.70;99.90
13344;DHT22;6741;48.964;9.406;2023-04-28T02:08:58;8.70;99.90
13344;DHT22;6741;48.964;9.406;2023-04-28T02:11:25;8.50;99.90
13344;DHT22;6741;48.964;9.406;2023-04-28T02:13:52;8.60;99.90
13344;DHT22;6741;48.964;9.406;2023-04-28T02:16:21;8.60;99.90
13344;DHT22;6741;48.964;9.406;2023-04-28T02:18:49;8.70;99.90
13344;DHT22;6741;48.964;9.406;2023-04-28T02:21:16;8.70;99.90
13344;DHT22;6741;48.964;9.406;2023-04-28T02:23:42;8.80;99.90
13344;DHT22;6741;48.964;9.406;2023-04-28T02:26:09;8.80;99.90
13344;DHT22;6741;48.964;9.406;2023-04-28T02:28:37;8.90;99.90
13344;DHT22;6741;48.964;9.406;2023-04-28T02:31:05;8.90;99.90
13344;DHT22;6741;48.964;9.406;2023-04-28T02:33:33;8.90;99.90
13344;DHT22;6741;48.964;9.406;2023-04-28T02:36:01;9.00;99.90
13344;DHT22;6741;48.964;9.406;2023-04-28T02:38:28;8.90;99.90
13344;DHT22;6741;48.964;9.406;2023-04-28T02:40:59;8.90;99.90
13344;DHT22;6741;48.964;9.406;2023-04-28T02:43:26;8.90;99.90
13344;DHT22;6741;48.964;9.406;2023-04-28T02:45:53;8.90;99.90
13344;DHT22;6741;48.964;9.406;2023-04-28T02:48:21;8.90;99.90
13344;DHT22;6741;48.964;9.406;2023-04-28T02:50:49;9.00;99.90
13344;DHT22;6741;48.964;9.406;2023-04-28T02:53:17;9.00;99.90
13344;DHT22;6741;48.964;9.406;2023-04-28T02:55:44;9.00;99.90
13344;DHT22;6741;48.964;9.406;2023-04-28T02:58:11;8.90;99.90
13344;DHT22;6741;48.964;9.406;2023-04-28T03:00:38;9.00;99.90
13344;DHT22;6741;48.964;9.406;2023-04-28T03:03:05;9.00;99.90
13344;DHT22;6741;48.964;9.406;2023-04-28T03:05:32;9.00;99.90
13344;DHT22;6741;48.964;9.406;2023-04-28T03:08:00;9.00;99.90
13344;DHT22;6741;48.964;9.406;2023-04-28T03:10:27;9.10;99.90
13344;DHT22;6741;48.964;9.406;2023-04-28T03:12:54;9.20;99.90
13344;DHT22;6741;48.964;9.406;2023-04-28T03:15:21;9.20;99.90
13344;DHT22;6741;48.964;9.406;2023-04-28T03:17:48;9.30;99.90
13344;DHT22;6741;48.964;9.406;2023-04-28T03:20:15;9.30;99.90
13344;DHT22;6741;48.964;9.406;2023-04-28T03:22:42;9.20;99.90
13344;DHT22;6741;48.964;9.406;2023-04-28T03:25:10;9.20;99.90
13344;DHT22;6741;48.964;9.406;2023-04-28T03:27:37;9.30;99.90
13344;DHT22;6741;48.964;9.406;2023-04-28T03:30:06;9.30;99.90
13344;DHT22;6741;48.964;9.406;2023-04-28T03:32:34;9.20;99.90
13344;DHT22;6741;48.964;9.406;2023-04-28T03:35:01;9.10;99.90
13344;DHT22;6741;48.964;9.406;2023-04-28T03:37:28;9.10;99.90
13344;DHT22;6741;48.964;9.406;2023-04-28T03:39:55;9.10;99.90
13344;DHT22;6741;48.964;9.406;2023-04-28T03:42:24;9.10;99.90
13344;DHT22;6741;48.964;9.406;2023-04-28T03:44:51;9.10;99.90
13344;DHT22;6741;48.964;9.406;2023-04-28T03:47:18;9.10;99.90
13344;DHT22;6741;48.964;9.406;2023-04-28T03:49:44;9.00;99.90
13344;DHT22;6741;48.964;9.406;2023-04-28T03:52:11;8.90;99.90
13344;DHT22;6741;48.964;9.406;2023-04-28T03:54:38;8.90;99.90
13344;DHT22;6741;48.964;9.406;2023-04-28T03:57:06;8.80;99.90
13344;DHT22;6741;48.964;9.406;2023-04-28T03:59:34;8.90;99.90
13344;DHT22;6741;48.964;9.406;2023-04-28T04:02:01;8.90;99.90
13344;DHT22;6741;48.964;9.406;2023-04-28T04:04:28;8.90;99.90
13344;DHT22;6741;48.964;9.406;2023-04-28T04:06:55;9.00;99.90
13344;DHT22;6741;48.964;9.406;2023-04-28T04:09:22;9.00;99.90
13344;DHT22;6741;48.964;9.406;2023-04-28T04:11:49;9.00;99.90
13344;DHT22;6741;48.964;9.406;2023-04-28T04:14:16;9.00;99.90
13344;DHT22;6741;48.964;9.406;2023-04-28T04:16:45;9.10;99.90
13344;DHT22;6741;48.964;9.406;2023-04-28T04:19:13;9.10;99.90
13344;DHT22;6741;48.964;9.406;2023-04-28T04:21:40;9.10;99.90
13344;DHT22;6741;48.964;9.406;2023-04-28T04:24:07;9.20;99.90
13344;DHT22;6741;48.964;9.406;2023-04-28T04:26:34;9.20;99.90
13344;DHT22;6741;48.964;9.406;2023-04-28T04:29:01;9.10;99.90
13344;DHT22;6741;48.964;9.406;2023-04-28T04:31:28;9.10;99.90
13344;DHT22;6741;48.964;9.406;2023-04-28T04:33:56;9.10;99.90
13344;DHT22;6741;48.964;9.406;2023-04-28T04:36:23;9.10;99.90
13344;DHT22;6741;48.964;9.406;2023-04-28T04:38:50;9.10;99.90
13344;DHT22;6741;48.964;9.406;2023-04-28T04:41:17;9.20;99.90
13344;DHT22;6741;48.964;9.406;2023-04-28T04:43:46;9.10;99.90
13344;DHT22;6741;48.964;9.406;2023-04-28T04:46:13;9.20;99.90
13344;DHT22;6741;48.964;9.406;2023-04-28T04:48:40;9.20;99.90
13344;DHT22;6741;48.964;9.406;2023-04-28T04:51:09;9.30;99.90
13344;DHT22;6741;48.964;9.406;2023-04-28T04:53:36;9.30;99.90
13344;DHT22;6741;48.964;9.406;2023-04-28T04:56:03;9.30;99.90
13344;DHT22;6741;48.964;9.406;2023-04-28T04:58:31;9.30;99.90
13344;DHT22;6741;48.964;9.406;2023-04-28T05:00:58;9.30;99.90
13344;DHT22;6741;48.964;9.406;2023-04-28T05:03:25;9.30;99.90
13344;DHT22;6741;48.964;9.406;2023-04-28T05:05:52;9.40;99.90
13344;DHT22;6741;48.964;9.406;2023-04-28T05:08:21;9.40;99.90
13344;DHT22;6741;48.964;9.406;2023-04-28T05:10:48;9.50;99.90
13344;DHT22;6741;48.964;9.406;2023-04-28T05:13:15;9.40;99.90
13344;DHT22;6741;48.964;9.406;2023-04-28T05:15:42;9.30;99.90
13344;DHT22;6741;48.964;9.406;2023-04-28T05:18:09;9.30;99.90
13344;DHT22;6741;48.964;9.406;2023-04-28T05:20:36;9.20;99.90
13344;DHT22;6741;48.964;9.406;2023-04-28T05:23:03;9.20;99.90
13344;DHT22;6741;48.964;9.406;2023-04-28T05:25:32;9.20;99.90
13344;DHT22;6741;48.964;9.406;2023-04-28T05:27:59;9.20;99.90
13344;DHT22;6741;48.964;9.406;2023-04-28T05:30:29;9.30;99.90
13344;DHT22;6741;48.964;9.406;2023-04-28T05:32:56;9.40;99.90
13344;DHT22;6741;48.964;9.406;2023-04-28T05:35:23;9.50;99.90
13344;DHT22;6741;48.964;9.406;2023-04-28T05:37:50;9.60;99.90
13344;DHT22;6741;48.964;9.406;2023-04-28T05:40:17;9.70;99.90
13344;DHT22;6741;48.964;9.406;2023-04-28T05:42:45;9.60;99.90
13344;DHT22;6741;48.964;9.406;2023-04-28T05:45:12;9.60;99.90
13344;DHT22;6741;48.964;9.406;2023-04-28T05:47:39;9.60;99.90
13344;DHT22;6741;48.964;9.406;2023-04-28T05:50:07;9.60;99.90
13344;DHT22;6741;48.964;9.406;2023-04-28T05:52:34;9.70;99.90
13344;DHT22;6741;48.964;9.406;2023-04-28T05:55:01;9.70;99.90
13344;DHT22;6741;48.964;9.406;2023-04-28T05:57:28;9.80;99.90
13344;DHT22;6741;48.964;9.406;2023-04-28T05:59:56;9.90;99.90
13344;DHT22;6741;48.964;9.406;2023-04-28T06:02:23;10.00;99.90
13344;DHT22;6741;48.964;9.406;2023-04-28T06:04:51;9.90;99.90
13344;DHT22;6741;48.964;9.406;2023-04-28T06:07:18;10.00;99.90
13344;DHT22;6741;48.964;9.406;2023-04-28T06:09:48;10.00;99.90
13344;DHT22;6741;48.964;9.406;2023-04-28T06:12:15;10.10;99.90
13344;DHT22;6741;48.964;9.406;2023-04-28T06:14:42;10.20;99.90
13344;DHT22;6741;48.964;9.406;2023-04-28T06:17:10;10.20;99.90
13344;DHT22;6741;48.964;9.406;2023-04-28T06:19:37;10.30;99.90
13344;DHT22;6741;48.964;9.406;2023-04-28T06:22:04;10.40;99.90
13344;DHT22;6741;48.964;9.406;2023-04-28T06:24:31;10.50;99.90
13344;DHT22;6741;48.964;9.406;2023-04-28T06:26:58;10.60;99.90
13344;DHT22;6741;48.964;9.406;2023-04-28T06:29:25;10.60;99.90
13344;DHT22;6741;48.964;9.406;2023-04-28T06:31:52;10.60;99.90
13344;DHT22;6741;48.964;9.406;2023-04-28T06:34:23;10.60;99.90
13344;DHT22;6741;48.964;9.406;2023-04-28T06:36:51;10.70;99.90
13344;DHT22;6741;48.964;9.406;2023-04-28T06:39:19;10.80;99.90
13344;DHT22;6741;48.964;9.406;2023-04-28T06:41:46;10.90;99.90
13344;DHT22;6741;48.964;9.406;2023-04-28T06:44:13;11.00;99.90
13344;DHT22;6741;48.964;9.406;2023-04-28T06:46:40;11.10;99.90
13344;DHT22;6741;48.964;9.406;2023-04-28T06:49:07;11.10;99.90
13344;DHT22;6741;48.964;9.406;2023-04-28T06:51:38;11.10;99.90
13344;DHT22;6741;48.964;9.406;2023-04-28T06:54:05;11.10;99.90
13344;DHT22;6741;48.964;9.406;2023-04-28T06:56:32;11.10;99.90
13344;DHT22;6741;48.964;9.406;2023-04-28T06:58:59;11.10;99.90
13344;DHT22;6741;48.964;9.406;2023-04-28T07:01:26;11.10;99.90
13344;DHT22;6741;48.964;9.406;2023-04-28T07:03:53;11.10;99.90
13344;DHT22;6741;48.964;9.406;2023-04-28T07:06:20;11.20;99.90
13344;DHT22;6741;48.964;9.406;2023-04-28T07:08:48;11.20;99.90
13344;DHT22;6741;48.964;9.406;2023-04-28T07:11:16;11.10;99.90
13344;DHT22;6741;48.964;9.406;2023-04-28T07:13:43;11.00;99.90
13344;DHT22;6741;48.964;9.406;2023-04-28T07:16:10;10.90;99.90
13344;DHT22;6741;48.964;9.406;2023-04-28T07:18:37;10.80;99.90
13344;DHT22;6741;48.964;9.406;2023-04-28T07:21:04;10.90;99.90
13344;DHT22;6741;48.964;9.406;2023-04-28T07:23:31;11.00;99.90
13344;DHT22;6741;48.964;9.406;2023-04-28T07:25:59;11.00;99.90
13344;DHT22;6741;48.964;9.406;2023-04-28T07:28:27;11.00;99.90
13344;DHT22;6741;48.964;9.406;2023-04-28T07:30:54;11.10;99.90
13344;DHT22;6741;48.964;9.406;2023-04-28T07:33:22;11.10;99.90
13344;DHT22;6741;48.964;9.406;2023-04-28T07:35:48;11.20;99.90
13344;DHT22;6741;48.964;9.406;2023-04-28T07:38:17;11.20;99.90
13344;DHT22;6741;48.964;9.406;2023-04-28T07:40:45;11.20;99.90
13344;DHT22;6741;48.964;9.406;2023-04-28T07:43:13;11.20;99.90
13344;DHT22;6741;48.964;9.406;2023-04-28T07:45:40;11.10;99.90
13344;DHT22;6741;48.964;9.406;2023-04-28T07:48:10;11.00;99.90
13344;DHT22;6741;48.964;9.406;2023-04-28T07:50:36;11.00;99.90
13344;DHT22;6741;48.964;9.406;2023-04-28T07:53:03;11.00;99.90
13344;DHT22;6741;48.964;9.406;2023-04-28T07:55:30;10.90;99.90
13344;DHT22;6741;48.964;9.406;2023-04-28T07:57:57;10.90;99.90
13344;DHT22;6741;48.964;9.406;2023-04-28T08:00:26;10.80;99.90
13344;DHT22;6741;48.964;9.406;2023-04-28T08:02:53;10.80;99.90
13344;DHT22;6741;48.964;9.406;2023-04-28T08:05:21;10.80;99.90
13344;DHT22;6741;48.964;9.406;2023-04-28T08:07:48;10.80;99.90
13344;DHT22;6741;48.964;9.406;2023-04-28T08:10:15;10.90;99.90
13344;DHT22;6741;48.964;9.406;2023-04-28T08:12:42;10.90;99.90
13344;DHT22;6741;48.964;9.406;2023-04-28T08:15:09;11.00;99.90
13344;DHT22;6741;48.964;9.406;2023-04-28T08:17:38;11.10;99.90
13344;DHT22;6741;48.964;9.406;2023-04-28T08:20:06;11.10;99.90
13344;DHT22;6741;48.964;9.406;2023-04-28T08:22:33;11.10;99.90
13344;DHT22;6741;48.964;9.406;2023-04-28T08:25:00;11.10;99.90
13344;DHT22;6741;48.964;9.406;2023-04-28T08:27:28;11.10;99.90
13344;DHT22;6741;48.964;9.406;2023-04-28T08:29:54;11.30;99.90
13344;DHT22;6741;48.964;9.406;2023-04-28T08:32:21;11.40;99.90
13344;DHT22;6741;48.964;9.406;2023-04-28T08:34:50;11.50;99.90
13344;DHT22;6741;48.964;9.406;2023-04-28T08:37:17;11.60;99.90
13344;DHT22;6741;48.964;9.406;2023-04-28T08:39:44;11.60;99.90
13344;DHT22;6741;48.964;9.406;2023-04-28T08:42:12;11.60;99.90
13344;DHT22;6741;48.964;9.406;2023-04-28T08:44:39;11.80;99.90
13344;DHT22;6741;48.964;9.406;2023-04-28T08:47:11;11.90;99.90
13344;DHT22;6741;48.964;9.406;2023-04-28T08:49:39;11.90;99.90
13344;DHT22;6741;48.964;9.406;2023-04-28T08:52:10;11.90;99.90
13344;DHT22;6741;48.964;9.406;2023-04-28T08:54:38;11.90;99.90
13344;DHT22;6741;48.964;9.406;2023-04-28T08:57:08;11.90;99.90
13344;DHT22;6741;48.964;9.406;2023-04-28T08:59:38;12.00;99.90
13344;DHT22;6741;48.964;9.406;2023-04-28T09:02:06;12.10;99.90
13344;DHT22;6741;48.964;9.406;2023-04-28T09:04:34;12.20;99.90
13344;DHT22;6741;48.964;9.406;2023-04-28T09:07:01;12.30;99.90
13344;DHT22;6741;48.964;9.406;2023-04-28T09:09:30;12.40;99.90
13344;DHT22;6741;48.964;9.406;2023-04-28T09:11:58;12.50;99.90
13344;DHT22;6741;48.964;9.406;2023-04-28T09:14:26;12.50;99.90
13344;DHT22;6741;48.964;9.406;2023-04-28T09:16:54;12.60;99.90
13344;DHT22;6741;48.964;9.406;2023-04-28T09:19:21;12.60;99.90
13344;DHT22;6741;48.964;9.406;2023-04-28T09:21:53;12.60;99.90
13344;DHT22;6741;48.964;9.406;2023-04-28T09:24:29;12.60;99.90
13344;DHT22;6741;48.964;9.406;2023-04-28T09:26:56;12.50;99.90
13344;DHT22;6741;48.964;9.406;2023-04-28T09:29:23;12.50;99.90
13344;DHT22;6741;48.964;9.406;2023-04-28T09:31:51;12.70;99.90
13344;DHT22;6741;48.964;9.406;2023-04-28T09:34:18;13.00;99.90
13344;DHT22;6741;48.964;9.406;2023-04-28T09:36:46;13.00;99.90
13344;DHT22;6741;48.964;9.406;2023-04-28T09:39:13;13.10;99.90
13344;DHT22;6741;48.964;9.406;2023-04-28T09:41:43;13.00;99.90
13344;DHT22;6741;48.964;9.406;2023-04-28T09:44:13;13.10;99.90
13344;DHT22;6741;48.964;9.406;2023-04-28T09:46:41;13.40;99.90
13344;DHT22;6741;48.964;9.406;2023-04-28T09:49:09;13.50;99.90
13344;DHT22;6741;48.964;9.406;2023-04-28T09:51:36;13.50;99.90
13344;DHT22;6741;48.964;9.406;2023-04-28T09:54:04;13.60;99.90
13344;DHT22;6741;48.964;9.406;2023-04-28T09:56:32;13.70;99.90
13344;DHT22;6741;48.964;9.406;2023-04-28T09:59:01;13.70;99.90
13344;DHT22;6741;48.964;9.406;2023-04-28T10:01:32;13.70;99.90
13344;DHT22;6741;48.964;9.406;2023-04-28T10:04:03;14.00;99.90
13344;DHT22;6741;48.964;9.406;2023-04-28T10:06:33;14.10;99.90
13344;DHT22;6741;48.964;9.406;2023-04-28T10:09:01;14.10;99.90
13344;DHT22;6741;48.964;9.406;2023-04-28T10:11:28;14.00;99.90
13344;DHT22;6741;48.964;9.406;2023-04-28T10:13:56;13.90;99.90
13344;DHT22;6741;48.964;9.406;2023-04-28T10:16:25;13.80;99.90
13344;DHT22;6741;48.964;9.406;2023-04-28T10:18:55;13.80;99.90
13344;DHT22;6741;48.964;9.406;2023-04-28T10:21:23;13.70;99.90
13344;DHT22;6741;48.964;9.406;2023-04-28T10:24:12;13.70;99.90
13344;DHT22;6741;48.964;9.406;2023-04-28T10:27:03;13.80;99.90
13344;DHT22;6741;48.964;9.406;2023-04-28T10:29:31;13.70;99.90
13344;DHT22;6741;48.964;9.406;2023-04-28T10:32:20;13.80;99.90
13344;DHT22;6741;48.964;9.406;2023-04-28T10:34:48;14.00;99.90
13344;DHT22;6741;48.964;9.406;2023-04-28T10:37:15;13.90;99.90
13344;DHT22;6741;48.964;9.406;2023-04-28T10:42:51;14.10;99.90
13344;DHT22;6741;48.964;9.406;2023-04-28T10:48:23;14.30;99.90
13344;DHT22;6741;48.964;9.406;2023-04-28T10:51:33;14.40;99.90
13344;DHT22;6741;48.964;9.406;2023-04-28T10:54:13;14.40;99.90
13344;DHT22;6741;48.964;9.406;2023-04-28T10:57:14;14.50;99.90
13344;DHT22;6741;48.964;9.406;2023-04-28T10:59:41;14.70;99.90
13344;DHT22;6741;48.964;9.406;2023-04-28T11:02:39;14.80;99.90
13344;DHT22;6741;48.964;9.406;2023-04-28T11:05:15;15.00;99.90
13344;DHT22;6741;48.964;9.406;2023-04-28T11:11:19;15.10;99.90
13344;DHT22;6741;48.964;9.406;2023-04-28T11:13:47;15.10;99.90
13344;DHT22;6741;48.964;9.406;2023-04-28T11:16:16;15.10;99.90
13344;DHT22;6741;48.964;9.406;2023-04-28T11:18:57;15.00;99.90
13344;DHT22;6741;48.964;9.406;2023-04-28T11:21:30;15.10;99.90
13344;DHT22;6741;48.964;9.406;2023-04-28T11:23:57;14.90;99.90
13344;DHT22;6741;48.964;9.406;2023-04-28T11:26:24;14.70;99.90
13344;DHT22;6741;48.964;9.406;2023-04-28T11:28:54;14.70;99.90
13344;DHT22;6741;48.964;9.406;2023-04-28T11:31:23;14.70;99.90
13344;DHT22;6741;48.964;9.406;2023-04-28T11:33:59;14.80;99.90
13344;DHT22;6741;48.964;9.406;2023-04-28T11:36:32;14.70;99.90
13344;DHT22;6741;48.964;9.406;2023-04-28T11:39:01;14.70;99.90
13344;DHT22;6741;48.964;9.406;2023-04-28T11:41:30;14.70;99.90
13344;DHT22;6741;48.964;9.406;2023-04-28T11:43:57;14.60;99.90
13344;DHT22;6741;48.964;9.406;2023-04-28T11:46:24;14.70;99.90
13344;DHT22;6741;48.964;9.406;2023-04-28T11:49:02;14.80;99.90
13344;DHT22;6741;48.964;9.406;2023-04-28T11:51:33;14.90;99.90
13344;DHT22;6741;48.964;9.406;2023-04-28T11:54:01;14.90;99.90
13344;DHT22;6741;48.964;9.406;2023-04-28T11:56:29;15.10;99.90
13344;DHT22;6741;48.964;9.406;2023-04-28T11:59:01;15.10;99.90
13344;DHT22;6741;48.964;9.406;2023-04-28T12:01:29;15.10;99.90
13344;DHT22;6741;48.964;9.406;2023-04-28T12:03:56;15.10;99.90
13344;DHT22;6741;48.964;9.406;2023-04-28T12:06:23;15.30;99.90
13344;DHT22;6741;48.964;9.406;2023-04-28T12:08:51;15.30;99.90
13344;DHT22;6741;48.964;9.406;2023-04-28T12:11:20;15.30;99.90
13344;DHT22;6741;48.964;9.406;2023-04-28T12:14:06;15.30;99.90
13344;DHT22;6741;48.964;9.406;2023-04-28T12:16:42;15.30;99.90
13344;DHT22;6741;48.964;9.406;2023-04-28T12:19:10;15.30;99.90
13344;DHT22;6741;48.964;9.406;2023-04-28T12:21:38;15.30;99.90
13344;DHT22;6741;48.964;9.406;2023-04-28T12:24:18;15.30;99.90
13344;DHT22;6741;48.964;9.406;2023-04-28T12:26:47;15.30;99.90
13344;DHT22;6741;48.964;9.406;2023-04-28T12:29:34;15.30;99.90
13344;DHT22;6741;48.964;9.406;2023-04-28T12:32:04;15.40;99.90
13344;DHT22;6741;48.964;9.406;2023-04-28T12:34:31;15.40;99.90
13344;DHT22;6741;48.964;9.406;2023-04-28T12:36:59;15.50;99.90
13344;DHT22;6741;48.964;9.406;2023-04-28T12:39:40;15.30;99.90
13344;DHT22;6741;48.964;9.406;2023-04-28T12:42:13;15.30;99.90
13344;DHT22;6741;48.964;9.406;2023-04-28T12:44:40;15.20;99.90
13344;DHT22;6741;48.964;9.406;2023-04-28T12:47:08;15.00;99.90
13344;DHT22;6741;48.964;9.406;2023-04-28T12:49:35;14.90;99.90
13344;DHT22;6741;48.964;9.406;2023-04-28T12:52:04;14.80;99.90
13344;DHT22;6741;48.964;9.406;2023-04-28T12:54:31;14.80;99.90
13344;DHT22;6741;48.964;9.406;2023-04-28T12:57:00;14.70;99.90
13344;DHT22;6741;48.964;9.406;2023-04-28T12:59:28;14.60;99.90
13344;DHT22;6741;48.964;9.406;2023-04-28T13:01:56;14.40;99.90
13344;DHT22;6741;48.964;9.406;2023-04-28T13:04:23;14.30;99.90
13344;DHT22;6741;48.964;9.406;2023-04-28T13:06:50;14.30;99.90
13344;DHT22;6741;48.964;9.406;2023-04-28T13:09:18;14.30;99.90
13344;DHT22;6741;48.964;9.406;2023-04-28T13:11:45;14.40;99.90
13344;DHT22;6741;48.964;9.406;2023-04-28T13:14:13;14.50;99.90
13344;DHT22;6741;48.964;9.406;2023-04-28T13:16:40;14.40;99.90
13344;DHT22;6741;48.964;9.406;2023-04-28T13:19:07;14.40;99.90
13344;DHT22;6741;48.964;9.406;2023-04-28T13:21:38;14.40;99.90
13344;DHT22;6741;48.964;9.406;2023-04-28T13:24:06;14.50;99.90
13344;DHT22;6741;48.964;9.406;2023-04-28T13:26:34;14.60;99.90
13344;DHT22;6741;48.964;9.406;2023-04-28T13:29:01;14.60;99.90
13344;DHT22;6741;48.964;9.406;2023-04-28T13:31:30;14.80;99.90
13344;DHT22;6741;48.964;9.406;2023-04-28T13:33:57;14.90;99.90
13344;DHT22;6741;48.964;9.406;2023-04-28T13:36:26;15.00;99.90
13344;DHT22;6741;48.964;9.406;2023-04-28T13:38:55;14.90;99.90
13344;DHT22;6741;48.964;9.406;2023-04-28T13:41:22;15.20;99.90
13344;DHT22;6741;48.964;9.406;2023-04-28T13:43:50;15.80;99.90
13344;DHT22;6741;48.964;9.406;2023-04-28T13:46:18;17.20;99.90
13344;DHT22;6741;48.964;9.406;2023-04-28T13:48:47;17.70;99.90
13344;DHT22;6741;48.964;9.406;2023-04-28T13:51:15;17.60;99.90
13344;DHT22;6741;48.964;9.406;2023-04-28T13:53:41;17.00;99.90
13344;DHT22;6741;48.964;9.406;2023-04-28T13:56:08;16.70;99.90
13344;DHT22;6741;48.964;9.406;2023-04-28T13:58:35;16.60;99.90
13344;DHT22;6741;48.964;9.406;2023-04-28T14:01:02;16.40;99.90
13344;DHT22;6741;48.964;9.406;2023-04-28T14:03:30;16.20;99.90
13344;DHT22;6741;48.964;9.406;2023-04-28T14:05:58;16.00;99.90
13344;DHT22;6741;48.964;9.406;2023-04-28T14:08:25;16.20;99.90
13344;DHT22;6741;48.964;9.406;2023-04-28T14:10:53;16.40;99.90
13344;DHT22;6741;48.964;9.406;2023-04-28T14:13:20;16.60;99.90
13344;DHT22;6741;48.964;9.406;2023-04-28T14:15:50;16.60;99.90
13344;DHT22;6741;48.964;9.406;2023-04-28T14:18:17;16.90;99.90
13344;DHT22;6741;48.964;9.406;2023-04-28T14:20:44;16.90;99.90
13344;DHT22;6741;48.964;9.406;2023-04-28T14:23:12;16.90;99.90
13344;DHT22;6741;48.964;9.406;2023-04-28T14:25:40;16.80;99.90
13344;DHT22;6741;48.964;9.406;2023-04-28T14:28:07;16.70;99.90
13344;DHT22;6741;48.964;9.406;2023-04-28T14:30:34;16.60;99.90
13344;DHT22;6741;48.964;9.406;2023-04-28T14:33:01;16.60;99.90
13344;DHT22;6741;48.964;9.406;2023-04-28T14:35:28;16.70;99.90
13344;DHT22;6741;48.964;9.406;2023-04-28T14:37:56;16.70;99.90
13344;DHT22;6741;48.964;9.406;2023-04-28T14:40:25;16.60;99.90
13344;DHT22;6741;48.964;9.406;2023-04-28T14:42:52;16.50;99.90
13344;DHT22;6741;48.964;9.406;2023-04-28T14:45:20;16.40;99.90
13344;DHT22;6741;48.964;9.406;2023-04-28T14:47:47;16.20;99.90
13344;DHT22;6741;48.964;9.406;2023-04-28T14:50:14;16.20;99.90
13344;DHT22;6741;48.964;9.406;2023-04-28T14:52:43;16.10;99.90
13344;DHT22;6741;48.964;9.406;2023-04-28T14:55:10;16.10;99.90
13344;DHT22;6741;48.964;9.406;2023-04-28T14:57:39;16.10;99.90
13344;DHT22;6741;48.964;9.406;2023-04-28T15:00:07;16.00;99.90
13344;DHT22;6741;48.964;9.406;2023-04-28T15:02:36;16.10;99.90
13344;DHT22;6741;48.964;9.406;2023-04-28T15:05:03;16.00;99.90
13344;DHT22;6741;48.964;9.406;2023-04-28T15:07:31;16.00;99.90
13344;DHT22;6741;48.964;9.406;2023-04-28T15:09:58;16.00;99.90
13344;DHT22;6741;48.964;9.406;2023-04-28T15:12:25;16.00;99.90
13344;DHT22;6741;48.964;9.406;2023-04-28T15:14:56;16.00;99.90
13344;DHT22;6741;48.964;9.406;2023-04-28T15:17:25;16.00;99.90
13344;DHT22;6741;48.964;9.406;2023-04-28T15:19:56;15.80;99.90
13344;DHT22;6741;48.964;9.406;2023-04-28T15:22:24;15.80;99.90
13344;DHT22;6741;48.964;9.406;2023-04-28T15:24:51;15.90;99.90
13344;DHT22;6741;48.964;9.406;2023-04-28T15:27:19;16.00;99.90
13344;DHT22;6741;48.964;9.406;2023-04-28T15:29:47;16.00;99.90
13344;DHT22;6741;48.964;9.406;2023-04-28T15:32:17;16.00;99.90
13344;DHT22;6741;48.964;9.406;2023-04-28T15:34:44;16.20;99.90
13344;DHT22;6741;48.964;9.406;2023-04-28T15:37:38;16.30;99.90
13344;DHT22;6741;48.964;9.406;2023-04-28T15:40:08;16.20;99.90
13344;DHT22;6741;48.964;9.406;2023-04-28T15:42:35;16.10;99.90
13344;DHT22;6741;48.964;9.406;2023-04-28T15:45:03;16.10;99.90
13344;DHT22;6741;48.964;9.406;2023-04-28T15:47:32;15.90;99.90
13344;DHT22;6741;48.964;9.406;2023-04-28T15:49:59;15.90;99.90
13344;DHT22;6741;48.964;9.406;2023-04-28T15:52:26;15.80;99.90
13344;DHT22;6741;48.964;9.406;2023-04-28T15:54:54;15.80;99.90
13344;DHT22;6741;48.964;9.406;2023-04-28T15:57:21;15.80;99.90
13344;DHT22;6741;48.964;9.406;2023-04-28T15:59:48;15.80;99.90
13344;DHT22;6741;48.964;9.406;2023-04-28T16:02:16;15.70;99.90
13344;DHT22;6741;48.964;9.406;2023-04-28T16:04:44;15.70;99.90
13344;DHT22;6741;48.964;9.406;2023-04-28T16:07:11;15.70;99.90
13344;DHT22;6741;48.964;9.406;2023-04-28T16:09:38;15.70;99.90